Time;durP1;ratioP1;P1;durP2;ratioP2;P2;SDS_P1;SDS_P2;PMS_P1;PMS_P2;Temp;Humidity;BMP_temperature;BMP_pressure;BME280_temperature;BME280_humidity;BME280_pressure;Samples;Min_cycle;Max_cycle;Signal;HPM_P1;HPM_P2
2024/03/18 00:02:25;;;;;;;12.43;2.20;;;;;;;9.40;100.00;99736.06;4862963;29;20037;-90
2024/03/18 00:04:52;;;;;;;12.77;2.20;;;;;;;9.36;100.00;99725.97;4877668;29;20552;-89
2024/03/18 00:07:19;;;;;;;16.80;2.38;;;;;;;9.42;100.00;99736.75;4869717;29;20036;-89
2024/03/18 00:09:49;;;;;;;15.35;2.25;;;;;;;9.46;100.00;99731.97;4847227;29;20037;-88
2024/03/18 00:12:33;;;;;;;15.52;2.58;;;;;;;9.36;100.00;99728.63;4864470;29;20032;-89
2024/03/18 00:15:02;;;;;;;11.27;2.45;;;;;;;9.38;100.00;99730.09;4844284;29;20037;-91
2024/03/18 00:17:42;;;;;;;9.95;1.80;;;;;;;9.30;100.00;99724.78;4846710;29;20036;-89
2024/03/18 00:20:11;;;;;;;12.70;1.98;;;;;;;9.25;100.00;99727.88;4842471;29;20045;-89
2024/03/18 00:22:53;;;;;;;15.82;2.78;;;;;;;9.22;100.00;99727.38;4845865;29;20120;-91
2024/03/18 00:25:26;;;;;;;15.80;2.08;;;;;;;9.15;100.00;99730.63;4842322;29;20044;-89
2024/03/18 00:27:57;;;;;;;13.65;1.98;;;;;;;9.18;100.00;99725.03;4863545;29;20099;-90
2024/03/18 00:30:42;;;;;;;;;;;;;;;;;;;;;
2024/03/18 00:33:08;;;;;;;16.65;2.42;;;;;;;9.18;100.00;99732.94;4865351;29;20062;-89
2024/03/18 00:35:37;;;;;;;16.80;2.38;;;;;;;9.25;100.00;99742.88;4849053;29;20056;-90
2024/03/18 00:38:06;;;;;;;23.05;2.75;;;;;;;9.17;100.00;99730.47;4880694;29;20044;-90
2024/03/18 00:40:36;;;;;;;18.50;2.95;;;;;;;9.15;100.00;99738.53;4855438;29;20032;-89
2024/03/18 00:43:49;;;;;;;17.98;2.47;;;;;;;9.18;100.00;99734.75;4862207;29;20055;-90
2024/03/18 00:46:22;;;;;;;12.35;1.88;;;;;;;9.09;100.00;99748.84;4864204;29;20067;-89
2024/03/18 00:49:36;;;;;;;15.10;2.47;;;;;;;9.02;100.00;99752.09;4858996;29;20033;-89
2024/03/18 00:52:59;;;;;;;11.10;2.33;;;;;;;8.93;100.00;99742.44;4852522;29;20061;-90
2024/03/18 00:56:21;;;;;;;19.98;3.20;;;;;;;8.91;100.00;99753.16;4871391;29;20096;-89
2024/03/18 00:59:25;;;;;;;12.82;1.73;;;;;;;8.79;100.00;99751.72;4859138;29;20075;-89
2024/03/18 01:02:11;;;;;;;10.77;1.60;;;;;;;8.79;100.00;99759.63;4869378;29;20514;-90
2024/03/18 01:05:17;;;;;;;10.50;2.13;;;;;;;8.81;100.00;99760.28;4849056;29;20045;-88
2024/03/18 01:07:45;;;;;;;8.38;2.03;;;;;;;8.77;100.00;99759.78;4863522;29;20492;-89
2024/03/18 01:10:17;;;;;;;12.55;1.58;;;;;;;8.83;100.00;99770.66;4864342;29;20140;-90
2024/03/18 01:12:47;;;;;;;7.20;1.50;;;;;;;8.78;100.00;99769.31;4849284;29;20053;-89
2024/03/18 01:15:18;;;;;;;8.98;1.63;;;;;;;8.85;100.00;99772.19;4837122;29;20045;-89
2024/03/18 01:22:28;;;;;;;9.43;1.38;;;;;;;8.92;100.00;99764.50;4816749;29;20043;-89
2024/03/18 01:25:34;;;;;;;10.25;1.40;;;;;;;8.99;100.00;99765.56;4836648;29;20079;-89
2024/03/18 01:28:14;;;;;;;7.53;2.47;;;;;;;8.99;100.00;99765.56;4850921;29;20060;-89
2024/03/18 01:30:43;;;;;;;5.70;1.00;;;;;;;8.97;100.00;99770.16;4841250;29;20053;-88
2024/03/18 01:33:09;;;;;;;8.02;1.40;;;;;;;9.00;100.00;99780.41;4881636;29;20045;-89
2024/03/18 01:35:35;;;;;;;9.90;1.13;;;;;;;8.93;100.00;99769.63;4864436;29;20101;-88
2024/03/18 01:38:08;;;;;;;5.22;1.27;;;;;;;9.03;100.00;99772.19;4865288;29;20045;-88
2024/03/18 01:41:01;;;;;;;4.17;0.83;;;;;;;9.00;100.00;99776.94;4865745;29;20040;-88
2024/03/18 01:43:46;;;;;;;10.15;1.40;;;;;;;8.91;100.00;99771.59;4846864;29;20048;-88
2024/03/18 01:46:35;;;;;;;3.30;0.77;;;;;;;8.88;100.00;99778.97;4870925;29;20052;-88
2024/03/18 01:49:04;;;;;;;5.25;0.88;;;;;;;8.80;100.00;99779.72;4861793;29;20088;-87
2024/03/18 01:51:36;;;;;;;3.65;0.90;;;;;;;8.65;100.00;99766.22;4866548;29;20097;-89
2024/03/18 01:54:16;;;;;;;;;;;;;;;8.62;100.00;99777.88;4853171;29;20048;-90
2024/03/18 01:56:57;;;;;;;6.32;1.60;;;;;;;8.62;100.00;99767.34;4865300;29;19926;-88
2024/03/18 01:59:36;;;;;;;5.25;0.85;;;;;;;8.48;100.00;99766.00;4877026;29;20041;-89
2024/03/18 02:02:23;;;;;;;5.38;0.63;;;;;;;8.49;100.00;99778.19;4841296;29;20036;-88
2024/03/18 02:04:55;;;;;;;3.40;0.82;;;;;;;8.42;100.00;99785.03;4881936;29;20044;-89
2024/03/18 02:07:30;;;;;;;4.53;0.80;;;;;;;8.39;100.00;99780.06;4859182;29;20045;-88
2024/03/18 02:10:03;;;;;;;4.88;0.68;;;;;;;8.32;100.00;99775.38;4862774;29;20051;-88
2024/03/18 02:12:46;;;;;;;;;;;;;;;;;;;;;
2024/03/18 02:15:23;;;;;;;4.72;0.55;;;;;;;8.23;100.00;99773.63;4858663;29;20032;-89
2024/03/18 02:17:58;;;;;;;1.92;0.50;;;;;;;8.22;100.00;99779.84;4851164;29;20039;-88
2024/03/18 02:20:32;;;;;;;4.40;0.98;;;;;;;8.13;100.00;99773.66;4862559;29;20052;-89
2024/03/18 02:23:04;;;;;;;;;;;;;;;8.08;100.00;99773.25;4872522;29;20130;-89
2024/03/18 02:25:41;;;;;;;3.67;0.52;;;;;;;8.10;100.00;99773.13;4857769;29;20927;-89
2024/03/18 02:28:12;;;;;;;2.97;0.77;;;;;;;8.02;100.00;99765.94;4850103;29;20475;-88
2024/03/18 02:30:46;;;;;;;4.65;0.73;;;;;;;8.03;100.00;99762.34;4864473;29;20119;-87
2024/03/18 02:33:22;;;;;;;7.32;0.95;;;;;;;7.97;100.00;99770.81;4860205;29;20028;-89
2024/03/18 02:35:48;;;;;;;3.45;0.55;;;;;;;7.96;100.00;99783.16;4858494;29;20104;-89
2024/03/18 02:38:14;;;;;;;4.68;0.63;;;;;;;7.83;100.00;99772.94;4882143;29;20040;-89
2024/03/18 02:40:47;;;;;;;2.78;0.50;;;;;;;7.76;100.00;99785.00;4861523;29;20059;-89
2024/03/18 02:43:16;;;;;;;4.57;0.70;;;;;;;7.73;100.00;99793.16;4865855;29;20127;-89
2024/03/18 02:45:51;;;;;;;4.47;0.50;;;;;;;7.69;100.00;99785.56;4866950;29;20044;-89
2024/03/18 02:48:39;;;;;;;5.07;0.40;;;;;;;7.66;100.00;99777.97;4859690;29;20036;-89
2024/03/18 02:51:10;;;;;;;4.30;0.82;;;;;;;7.65;100.00;99783.34;4844916;29;20388;-89
2024/03/18 02:53:50;;;;;;;6.53;0.98;;;;;;;7.62;100.00;99787.13;4839178;29;20056;-89
2024/03/18 02:56:34;;;;;;;2.75;0.40;;;;;;;7.67;100.00;99784.06;4850281;29;20040;-89
2024/03/18 02:59:02;;;;;;;2.58;0.40;;;;;;;7.59;100.00;99786.56;4861292;29;20045;-89
2024/03/18 03:01:35;;;;;;;3.13;0.88;;;;;;;7.55;100.00;99781.59;4867803;29;20036;-89
2024/03/18 03:04:05;;;;;;;8.10;0.75;;;;;;;7.55;100.00;99788.63;4843850;29;20036;-89
2024/03/18 03:06:38;;;;;;;5.00;0.68;;;;;;;7.59;100.00;99787.41;4863625;29;20083;-89
2024/03/18 03:09:04;;;;;;;1.75;0.40;;;;;;;7.48;100.00;99777.03;4881236;29;20056;-89
2024/03/18 03:11:31;;;;;;;2.63;0.40;;;;;;;7.42;100.00;99775.81;4840304;29;20480;-89
2024/03/18 03:14:25;;;;;;;3.97;0.47;;;;;;;7.43;100.00;99773.03;4862340;29;20081;-89
2024/03/18 03:17:02;;;;;;;2.00;0.30;;;;;;;7.42;100.00;99776.59;4860194;29;20044;-89
2024/03/18 03:20:18;;;;;;;1.75;0.38;;;;;;;7.41;100.00;99774.13;4865573;29;20041;-89
2024/03/18 03:23:04;;;;;;;2.72;0.63;;;;;;;7.35;100.00;99772.06;4854890;29;20093;-89
2024/03/18 03:25:43;;;;;;;2.38;0.40;;;;;;;7.27;100.00;99772.75;4865737;29;20063;-89
2024/03/18 03:28:13;;;;;;;2.13;0.47;;;;;;;7.18;100.00;99770.00;4892187;29;20511;-89
2024/03/18 03:30:39;;;;;;;9.90;1.10;;;;;;;7.18;100.00;99774.44;4879887;29;20057;-89
2024/03/18 03:33:08;;;;;;;3.13;0.45;;;;;;;7.23;100.00;99782.72;4862630;29;20081;-89
2024/03/18 03:36:04;;;;;;;3.20;0.40;;;;;;;7.25;100.00;99767.63;4862180;29;20065;-89
2024/03/18 03:38:45;;;;;;;3.40;0.40;;;;;;;7.24;100.00;99775.66;4876924;29;20047;-89
2024/03/18 03:41:11;;;;;;;4.13;0.45;;;;;;;7.22;100.00;99774.97;4878742;29;20047;-88
2024/03/18 03:43:37;;;;;;;1.95;0.40;;;;;;;7.19;100.00;99786.59;4859340;29;20134;-88
2024/03/18 03:46:04;;;;;;;3.83;0.40;;;;;;;7.11;100.00;99784.66;4845594;29;20052;-89
2024/03/18 03:48:30;;;;;;;3.00;0.63;;;;;;;7.08;100.00;99787.56;4876381;29;20040;-86
2024/03/18 03:50:56;;;;;;;6.60;0.82;;;;;;;7.07;100.00;99788.53;4859599;29;20033;-88
2024/03/18 03:53:27;;;;;;;3.15;0.40;;;;;;;7.11;100.00;99791.72;4862116;29;20555;-88
2024/03/18 03:56:00;;;;;;;5.47;0.55;;;;;;;7.12;100.00;99793.38;4862540;29;20033;-88
2024/03/18 03:58:30;;;;;;;3.30;0.70;;;;;;;7.12;100.00;99786.31;4862610;29;20096;-89
2024/03/18 04:01:02;;;;;;;7.38;0.70;;;;;;;7.11;100.00;99781.19;4858841;29;20574;-88
2024/03/18 04:03:30;;;;;;;3.00;0.60;;;;;;;7.12;100.00;99799.44;4861929;29;20137;-89
2024/03/18 04:06:01;;;;;;;2.67;0.60;;;;;;;7.05;100.00;99793.09;4846577;29;20036;-87
2024/03/18 04:08:32;;;;;;;3.53;0.50;;;;;;;7.08;100.00;99798.06;4851169;29;20563;-89
2024/03/18 04:11:04;;;;;;;4.05;0.50;;;;;;;7.04;100.00;99800.16;4850975;29;20131;-89
2024/03/18 04:13:36;;;;;;;1.23;0.40;;;;;;;7.00;100.00;99801.41;4851259;29;20045;-88
2024/03/18 04:16:02;;;;;;;7.30;0.73;;;;;;;6.93;100.00;99806.34;4864523;29;20041;-88
2024/03/18 04:18:29;;;;;;;2.47;0.50;;;;;;;6.88;100.00;99813.81;4879616;29;20040;-89
2024/03/18 04:21:01;;;;;;;2.83;0.60;;;;;;;6.81;100.00;99812.72;4849830;29;20044;-88
2024/03/18 04:23:29;;;;;;;1.88;0.40;;;;;;;6.78;100.00;99810.34;4864248;29;20045;-88
2024/03/18 04:25:57;;;;;;;3.60;0.47;;;;;;;6.74;100.00;99814.19;4881917;29;20052;-88
2024/03/18 04:28:24;;;;;;;2.33;0.60;;;;;;;6.68;100.00;99797.19;4875746;29;20051;-88
2024/03/18 04:30:50;;;;;;;2.80;0.47;;;;;;;6.67;100.00;99804.22;4862186;29;20044;-89
2024/03/18 04:33:19;;;;;;;1.85;0.30;;;;;;;6.65;100.00;99807.97;4843494;29;20506;-88
2024/03/18 04:35:45;;;;;;;4.07;0.60;;;;;;;6.62;100.00;99814.31;4865255;29;20036;-89
2024/03/18 04:38:11;;;;;;;1.35;0.30;;;;;;;6.54;100.00;99808.91;4849848;29;20076;-88
2024/03/18 04:40:39;;;;;;;1.33;0.35;;;;;;;6.53;100.00;99821.19;4875887;29;20113;-88
2024/03/18 04:43:05;;;;;;;1.00;0.30;;;;;;;6.50;100.00;99818.03;4849112;29;20037;-89
2024/03/18 04:45:31;;;;;;;2.35;0.60;;;;;;;6.44;100.00;99814.13;4863207;29;20064;-88
2024/03/18 04:48:02;;;;;;;2.55;0.30;;;;;;;6.38;100.00;99810.25;4877777;29;20484;-88
2024/03/18 04:50:28;;;;;;;2.05;0.60;;;;;;;6.33;100.00;99817.69;4862186;29;20044;-88
2024/03/18 04:52:57;;;;;;;2.17;0.65;;;;;;;6.30;100.00;99818.78;4848705;29;20127;-88
2024/03/18 04:55:23;;;;;;;0.73;0.30;;;;;;;6.27;100.00;99810.34;4877827;29;20041;-88
2024/03/18 04:57:55;;;;;;;1.88;0.40;;;;;;;6.26;100.00;99811.31;4879893;29;20411;-88
2024/03/18 05:00:28;;;;;;;1.52;0.40;;;;;;;6.23;100.00;99816.81;4857157;29;20136;-88
2024/03/18 05:02:54;;;;;;;3.00;0.50;;;;;;;6.20;100.00;99810.88;4863153;29;20187;-88
2024/03/18 05:05:20;;;;;;;2.05;0.47;;;;;;;6.18;100.00;99806.72;4876667;29;20056;-88
2024/03/18 05:07:47;;;;;;;3.53;0.43;;;;;;;6.16;100.00;99804.19;4864338;29;20033;-88
2024/03/18 05:10:16;;;;;;;1.92;0.40;;;;;;;6.20;100.00;99810.03;4862029;29;20033;-88
2024/03/18 05:12:42;;;;;;;2.60;0.32;;;;;;;6.18;100.00;99812.78;4875096;29;20041;-88
2024/03/18 05:15:11;;;;;;;1.73;0.30;;;;;;;6.13;100.00;99811.53;4848020;29;20044;-87
2024/03/18 05:17:38;;;;;;;5.15;0.90;;;;;;;6.08;100.00;99804.03;4858453;29;20120;-86
2024/03/18 05:20:04;;;;;;;1.23;0.40;;;;;;;6.06;100.00;99811.22;4848586;29;20097;-87
2024/03/18 05:22:32;;;;;;;1.85;0.40;;;;;;;6.01;100.00;99800.22;4875523;29;20509;-88
2024/03/18 05:24:58;;;;;;;4.03;0.70;;;;;;;6.08;100.00;99820.59;4848153;29;20032;-88
2024/03/18 05:27:27;;;;;;;3.53;0.68;;;;;;;6.10;100.00;99807.34;4876412;29;20049;-88
2024/03/18 05:29:53;;;;;;;3.25;0.52;;;;;;;6.14;100.00;99813.16;4876979;29;20032;-87
2024/03/18 05:32:19;;;;;;;5.55;0.63;;;;;;;6.11;100.00;99808.19;4863180;29;20568;-88
2024/03/18 05:34:45;;;;;;;2.97;0.98;;;;;;;6.10;100.00;99806.53;4873786;29;20036;-89
2024/03/18 05:37:12;;;;;;;8.93;0.77;;;;;;;6.11;100.00;99816.06;4849041;29;20787;-87
2024/03/18 05:39:38;;;;;;;4.43;0.80;;;;;;;6.04;100.00;99813.97;4863128;29;20045;-88
2024/03/18 05:42:05;;;;;;;6.20;0.90;;;;;;;6.06;100.00;99819.06;4845963;29;20539;-88
2024/03/18 05:44:31;;;;;;;2.63;0.60;;;;;;;6.04;100.00;99815.72;4878876;29;20395;-88
2024/03/18 05:46:58;;;;;;;1.20;0.77;;;;;;;6.11;100.00;99813.44;4868052;29;20047;-87
2024/03/18 05:49:24;;;;;;;2.38;0.73;;;;;;;6.12;100.00;99817.72;4877331;29;20048;-87
2024/03/18 05:51:51;;;;;;;4.70;0.70;;;;;;;6.06;100.00;99809.41;4876475;29;20041;-88
2024/03/18 05:54:18;;;;;;;4.18;0.73;;;;;;;6.12;100.00;99818.56;4884624;29;20044;-87
2024/03/18 05:56:45;;;;;;;4.38;0.60;;;;;;;6.14;100.00;99807.94;4893204;29;20056;-87
2024/03/18 05:59:11;;;;;;;2.25;0.50;;;;;;;6.20;100.00;99812.66;4854530;29;20524;-88
2024/03/18 06:01:38;;;;;;;8.20;0.75;;;;;;;6.23;100.00;99809.75;4871809;29;20841;-86
2024/03/18 06:04:04;;;;;;;5.22;0.70;;;;;;;6.22;100.00;99815.97;4876419;29;20028;-87
2024/03/18 06:06:31;;;;;;;5.00;0.75;;;;;;;6.23;100.00;99815.00;4860922;29;20045;-87
2024/03/18 06:08:57;;;;;;;2.55;0.50;;;;;;;6.19;100.00;99811.00;4848660;29;20028;-87
2024/03/18 06:11:22;;;;;;;3.42;0.80;;;;;;;6.20;100.00;99817.91;4863244;29;20044;-87
2024/03/18 06:13:48;;;;;;;5.32;0.40;;;;;;;6.17;100.00;99810.28;4860326;29;20044;-87
2024/03/18 06:16:14;;;;;;;8.70;1.30;;;;;;;6.10;100.00;99809.16;4876085;29;20380;-87
2024/03/18 06:18:42;;;;;;;3.88;0.50;;;;;;;6.07;100.00;99812.84;4844706;29;20411;-88
2024/03/18 06:21:16;;;;;;;6.10;0.52;;;;;;;6.05;100.00;99818.25;4879099;29;20044;-88
2024/03/18 06:23:50;;;;;;;5.55;0.60;;;;;;;5.97;100.00;99818.03;4878152;29;20124;-88
2024/03/18 06:26:19;;;;;;;4.20;0.40;;;;;;;5.83;100.00;99816.56;4864438;29;20700;-88
2024/03/18 06:28:46;;;;;;;1.27;0.30;;;;;;;5.67;100.00;99824.91;4878813;29;20028;-88
2024/03/18 06:31:13;;;;;;;2.40;0.47;;;;;;;5.58;100.00;99824.72;4863682;29;20052;-87
2024/03/18 06:33:39;;;;;;;4.43;0.45;;;;;;;5.49;100.00;99820.22;4864646;29;20088;-88
2024/03/18 06:36:11;;;;;;;1.65;0.43;;;;;;;5.46;100.00;99825.72;4845015;29;20083;-87
2024/03/18 06:38:39;;;;;;;3.42;0.50;;;;;;;5.44;100.00;99822.38;4867318;29;20051;-87
2024/03/18 06:41:09;;;;;;;1.63;0.68;;;;;;;5.44;100.00;99814.53;4844603;29;20033;-87
2024/03/18 06:43:38;;;;;;;3.72;0.50;;;;;;;5.45;100.00;99822.25;4863485;29;20044;-86
2024/03/18 06:46:09;;;;;;;2.92;0.82;;;;;;;5.50;100.00;99824.50;4879097;29;20029;-87
2024/03/18 06:48:35;;;;;;;4.30;0.93;;;;;;;5.53;100.00;99820.78;4862204;29;20115;-86
2024/03/18 06:51:01;;;;;;;1.80;0.50;;;;;;;5.62;100.00;99821.81;4864773;29;20077;-86
2024/03/18 06:53:27;;;;;;;2.55;0.60;;;;;;;5.68;100.00;99818.69;4842949;29;20180;-87
2024/03/18 06:55:53;;;;;;;2.88;0.60;;;;;;;5.77;100.00;99824.94;4864592;29;20039;-87
2024/03/18 06:58:24;;;;;;;4.15;0.45;;;;;;;5.81;100.00;99821.94;4863167;29;21923;-87
2024/03/18 07:00:50;;;;;;;2.72;0.80;;;;;;;5.90;100.00;99825.59;4836130;29;20037;-87
2024/03/18 07:03:16;;;;;;;2.92;0.50;;;;;;;5.96;100.00;99819.00;4860095;29;20051;-88
2024/03/18 07:05:42;;;;;;;1.35;0.40;;;;;;;5.99;100.00;99825.78;4870115;29;20040;-87
2024/03/18 07:08:08;;;;;;;1.38;0.40;;;;;;;6.12;100.00;99817.72;4857678;29;20768;-87
2024/03/18 07:10:33;;;;;;;3.85;0.50;;;;;;;6.29;100.00;99830.22;4859537;29;20532;-88
2024/03/18 07:12:59;;;;;;;0.47;0.30;;;;;;;6.50;100.00;99831.97;4862119;29;20040;-88
2024/03/18 07:15:25;;;;;;;3.58;0.80;;;;;;;6.75;100.00;99834.25;4878976;29;20072;-87
2024/03/18 07:17:51;;;;;;;6.13;0.57;;;;;;;6.99;100.00;99827.81;4864155;29;20036;-87
2024/03/18 07:20:16;;;;;;;5.10;0.98;;;;;;;7.25;100.00;99827.25;4863582;29;20047;-87
2024/03/18 07:22:42;;;;;;;9.60;0.93;;;;;;;7.47;100.00;99825.34;4863748;29;20532;-86
2024/03/18 07:25:10;;;;;;;6.65;1.08;;;;;;;7.65;100.00;99828.06;4878344;29;20360;-87
2024/03/18 07:27:39;;;;;;;8.70;1.30;;;;;;;7.77;100.00;99818.25;4849552;29;20037;-88
2024/03/18 07:30:07;;;;;;;3.85;0.50;;;;;;;7.81;100.00;99823.06;4861128;29;20286;-88
2024/03/18 07:32:33;;;;;;;3.40;0.50;;;;;;;7.68;100.00;99817.28;4888569;29;20044;-87
2024/03/18 07:34:59;;;;;;;1.45;0.30;;;;;;;7.46;100.00;99819.25;4887945;29;20033;-87
2024/03/18 07:37:25;;;;;;;3.90;0.40;;;;;;;7.20;100.00;99819.78;4887777;29;20036;-87
2024/03/18 07:39:50;;;;;;;2.60;0.32;;;;;;;7.22;100.00;99823.13;4862820;29;20476;-87
2024/03/18 07:42:17;;;;;;;1.80;0.50;;;;;;;7.34;100.00;99826.47;4893868;29;20124;-88
2024/03/18 07:44:43;;;;;;;2.03;0.90;;;;;;;7.42;100.00;99823.13;4884056;29;20047;-88
2024/03/18 07:47:09;;;;;;;1.35;0.60;;;;;;;7.55;100.00;99814.94;4898682;29;20044;-87
2024/03/18 07:49:38;;;;;;;5.00;1.33;;;;;;;7.73;100.00;99812.41;4856698;29;20029;-88
2024/03/18 07:52:05;;;;;;;5.15;0.73;;;;;;;7.83;100.00;99799.25;4879484;29;20052;-87
2024/03/18 07:54:32;;;;;;;9.70;1.42;;;;;;;7.96;100.00;99798.94;4858527;29;20036;-88
2024/03/18 07:56:58;;;;;;;7.75;1.13;;;;;;;8.07;100.00;99796.13;4887657;29;20037;-87
2024/03/18 07:59:24;;;;;;;10.43;1.67;;;;;;;8.16;100.00;99793.59;4866216;29;20476;-88
2024/03/18 08:01:53;;;;;;;11.15;1.38;;;;;;;8.24;100.00;99783.19;4879981;29;20044;-87
2024/03/18 08:04:19;;;;;;;11.10;2.17;;;;;;;8.38;100.00;99784.50;4888309;29;20095;-88
2024/03/18 08:06:49;;;;;;;7.25;1.95;;;;;;;8.45;100.00;99792.66;4876785;29;20096;-88
2024/03/18 08:09:18;;;;;;;11.25;2.63;;;;;;;8.53;100.00;99784.00;4883383;29;20040;-88
2024/03/18 08:11:50;;;;;;;13.50;1.65;;;;;;;8.51;100.00;99776.25;4866272;29;20571;-88
2024/03/18 08:14:36;;;;;;;16.75;2.38;;;;;;;8.57;100.00;99759.06;4866799;29;20100;-89
2024/03/18 08:17:23;;;;;;;9.35;1.73;;;;;;;8.49;100.00;99780.84;4883897;29;20387;-89
2024/03/18 08:19:54;;;;;;;13.35;1.70;;;;;;;8.37;100.00;99780.22;4872600;29;20032;-88
2024/03/18 08:22:48;;;;;;;17.25;2.25;;;;;;;8.31;100.00;99778.16;4887795;29;20562;-88
2024/03/18 08:25:17;;;;;;;19.67;1.67;;;;;;;8.27;100.00;99779.41;4868814;29;20043;-88
2024/03/18 08:27:45;;;;;;;12.05;1.88;;;;;;;8.35;100.00;99776.06;4868628;29;20067;-88
2024/03/18 08:30:18;;;;;;;10.27;1.30;;;;;;;8.49;100.00;99774.75;4884709;29;20128;-88
2024/03/18 08:32:50;;;;;;;11.18;2.03;;;;;;;8.59;100.00;99777.34;4883342;29;20045;-89
2024/03/18 08:35:22;;;;;;;10.30;2.05;;;;;;;8.62;100.00;99766.50;4884178;29;20151;-88
2024/03/18 08:37:59;;;;;;;13.80;1.90;;;;;;;8.66;100.00;99759.97;4869242;29;20491;-88
2024/03/18 08:40:25;;;;;;;11.27;1.88;;;;;;;8.80;100.00;99764.75;4868237;29;20049;-88
2024/03/18 08:42:59;;;;;;;6.97;1.30;;;;;;;8.97;100.00;99761.41;4866273;29;20128;-87
2024/03/18 08:45:25;;;;;;;13.40;1.83;;;;;;;9.16;100.00;99761.25;4878881;29;20037;-86
2024/03/18 08:47:59;;;;;;;17.15;1.95;;;;;;;9.38;100.00;99768.84;4869977;29;20033;-89
2024/03/18 08:54:30;;;;;;;9.20;1.83;;;;;;;9.39;100.00;99763.44;4860267;29;20042;-86
2024/03/18 08:58:06;;;;;;;11.20;1.42;;;;;;;9.14;100.00;99762.41;4891123;29;20068;-88
2024/03/18 09:01:07;;;;;;;19.77;2.03;;;;;;;9.09;100.00;99775.19;4876162;29;20060;-90
2024/03/18 09:04:58;;;;;;;11.93;2.35;;;;;;;9.03;100.00;99774.81;4864203;29;20647;-89
2024/03/18 09:08:42;;;;;;;16.13;2.53;;;;;;;9.18;100.00;99785.69;4847574;29;20149;-90
2024/03/18 09:11:53;;;;;;;12.98;2.45;;;;;;;9.27;100.00;99783.13;4882382;29;20075;-90
2024/03/18 09:14:29;;;;;;;14.68;1.70;;;;;;;9.23;100.00;99771.19;4863630;29;20048;-90
2024/03/18 09:17:04;;;;;;;12.13;1.90;;;;;;;9.33;100.00;99766.69;4879787;29;20036;-90
2024/03/18 09:20:54;;;;;;;14.40;2.17;;;;;;;9.35;100.00;99755.97;4858154;29;20556;-90
2024/03/18 09:28:27;;;;;;;13.70;2.10;;;;;;;9.66;100.00;99766.06;4854264;29;20094;-90
2024/03/18 09:31:50;;;;;;;15.65;2.13;;;;;;;9.71;100.00;99761.16;4819543;29;20049;-89
2024/03/18 09:34:53;;;;;;;9.02;1.42;;;;;;;9.61;100.00;99757.78;4843452;29;20061;-88
2024/03/18 09:46:25;;;;;;;14.80;3.40;;;;;;;9.67;100.00;99744.81;4802282;29;20051;-89
2024/03/18 09:49:35;;;;;;;21.35;3.28;;;;;;;9.62;100.00;99730.44;4801874;29;20503;-89
2024/03/18 09:52:38;;;;;;;16.98;3.28;;;;;;;9.66;100.00;99729.13;4785075;29;20042;-87
2024/03/18 09:55:36;;;;;;;14.98;2.67;;;;;;;9.75;100.00;99746.66;4795289;29;20077;-88
2024/03/18 09:58:22;;;;;;;16.27;3.13;;;;;;;9.77;100.00;99734.16;4877687;29;20043;-88
2024/03/18 10:01:00;;;;;;;;;;;;;;;9.71;100.00;99729.50;4881906;29;20067;-88
2024/03/18 10:03:44;;;;;;;11.70;2.35;;;;;;;9.72;100.00;99731.16;4879557;29;19916;-89
2024/03/18 10:06:41;;;;;;;17.55;3.17;;;;;;;9.67;100.00;99733.41;4859330;29;20487;-88
2024/03/18 10:09:39;;;;;;;12.30;2.63;;;;;;;9.64;100.00;99733.72;4856548;29;20373;-86
2024/03/18 10:13:09;;;;;;;10.98;2.67;;;;;;;9.57;100.00;99738.81;4881203;29;20044;-86
2024/03/18 10:19:37;;;;;;;15.75;2.65;;;;;;;9.63;100.00;99724.16;4830024;29;20045;-87
2024/03/18 10:26:39;;;;;;;;;;;;;;;;;;;;;
2024/03/18 10:29:53;;;;;;;20.38;2.22;;;;;;;9.72;100.00;99717.13;4900253;29;20037;-87
2024/03/18 10:33:16;;;;;;;17.30;2.38;;;;;;;9.73;100.00;99724.06;4861349;29;20396;-87
2024/03/18 10:36:05;;;;;;;16.33;2.35;;;;;;;9.74;100.00;99721.28;4878900;29;20040;-86
2024/03/18 10:39:52;;;;;;;18.55;2.35;;;;;;;9.85;100.00;99711.41;4808887;29;20054;-89
2024/03/18 10:42:21;;;;;;;14.93;1.83;;;;;;;9.82;100.00;99711.72;4889939;29;20554;-84
2024/03/18 10:48:58;;;;;;;18.05;3.10;;;;;;;9.96;100.00;99705.03;4861127;29;20036;-87
2024/03/18 10:51:26;;;;;;;11.20;2.08;;;;;;;9.99;100.00;99708.19;4876154;29;20080;-87
2024/03/18 10:54:15;;;;;;;18.77;2.58;;;;;;;10.10;100.00;99695.66;4894869;29;20044;-89
2024/03/18 10:57:33;;;;;;;17.20;2.28;;;;;;;10.21;100.00;99707.78;4873577;29;20112;-86
2024/03/18 11:00:19;;;;;;;;;;;;;;;10.28;100.00;99693.75;4891801;29;20088;-87
2024/03/18 11:03:32;;;;;;;12.90;2.13;;;;;;;10.47;100.00;99693.66;4878645;29;19927;-88
2024/03/18 11:06:16;;;;;;;17.98;2.42;;;;;;;10.60;100.00;99698.47;4891872;29;20045;-87
2024/03/18 11:08:59;;;;;;;14.50;2.38;;;;;;;10.62;100.00;99688.56;4859724;29;20033;-86
2024/03/18 11:11:35;;;;;;;11.05;1.98;;;;;;;10.59;100.00;99695.00;4871353;29;20076;-86
2024/03/18 11:14:12;;;;;;;16.02;2.22;;;;;;;10.63;100.00;99690.22;4899861;29;20056;-87
2024/03/18 11:17:06;;;;;;;14.65;2.33;;;;;;;10.62;100.00;99676.16;4873806;29;20055;-88
2024/03/18 11:19:48;;;;;;;19.15;2.65;;;;;;;10.66;100.00;99674.03;4857652;29;20055;-86
2024/03/18 11:22:39;;;;;;;12.23;1.90;;;;;;;10.63;100.00;99677.00;4874256;29;20440;-88
2024/03/18 11:26:14;;;;;;;16.38;1.98;;;;;;;10.65;100.00;99670.53;4887508;29;20061;-86
2024/03/18 11:32:56;;;;;;;16.35;2.15;;;;;;;10.66;100.00;99653.72;4837271;29;20058;-87
2024/03/18 11:36:42;;;;;;;23.08;2.33;;;;;;;10.70;100.00;99653.38;4834106;29;20065;-87
2024/03/18 11:39:49;;;;;;;14.82;2.22;;;;;;;10.72;100.00;99644.28;4814517;29;20044;-87
2024/03/18 11:42:29;;;;;;;17.15;2.05;;;;;;;10.77;100.00;99639.34;4808009;29;20062;-86
2024/03/18 11:50:23;;;;;;;12.45;1.98;;;;;;;10.79;100.00;99624.16;4805271;29;20605;-88
2024/03/18 11:53:18;;;;;;;15.77;2.67;;;;;;;10.84;100.00;99631.59;4830779;29;20501;-89
2024/03/18 11:56:05;;;;;;;;;;;;;;;;;;;;;
2024/03/18 11:58:40;;;;;;;17.08;1.80;;;;;;;10.84;100.00;99614.88;4871444;29;20080;-87
2024/03/18 12:01:26;;;;;;;16.45;1.65;;;;;;;10.84;100.00;99609.59;4872234;29;20499;-87
2024/03/18 12:04:01;;;;;;;16.38;1.73;;;;;;;10.94;100.00;99623.47;4882637;29;20112;-85
2024/03/18 12:06:49;;;;;;;11.05;1.88;;;;;;;10.98;100.00;99616.03;4872768;29;20048;-88
2024/03/18 12:09:56;;;;;;;20.90;3.45;;;;;;;10.98;100.00;99608.09;4852977;29;20135;-89
2024/03/18 12:12:23;;;;;;;11.73;1.60;;;;;;;10.91;100.00;99589.41;4883293;29;20144;-87
2024/03/18 12:15:01;;;;;;;14.85;1.70;;;;;;;10.94;100.00;99593.56;4873901;29;20131;-84
2024/03/18 12:17:28;;;;;;;12.20;1.93;;;;;;;10.87;100.00;99590.75;4872155;29;20097;-87
2024/03/18 12:20:06;;;;;;;13.57;1.42;;;;;;;10.88;100.00;99563.31;4874587;29;20045;-89
2024/03/18 12:30:37;;;;;;;20.80;2.22;;;;;;;10.94;100.00;99567.13;4811657;29;20056;-93
2024/03/18 12:34:46;;;;;;;12.07;1.63;;;;;;;10.96;100.00;99558.03;4855966;29;20097;-94
2024/03/18 12:37:15;;;;;;;11.75;2.25;;;;;;;10.89;100.00;99563.16;4808391;29;20050;-93
2024/03/18 12:47:10;;;;;;;12.45;1.48;;;;;;;10.92;100.00;99540.84;4790434;29;20051;-93
2024/03/18 12:50:40;;;;;;;14.15;1.88;;;;;;;10.97;100.00;99540.34;4766574;29;20541;-94
2024/03/18 12:58:15;;;;;;;15.85;1.83;;;;;;;11.02;100.00;99525.63;4757517;30;20140;-95
2024/03/18 13:01:07;;;;;;;13.38;2.33;;;;;;;11.01;100.00;99525.78;4776415;29;20069;-94
2024/03/18 13:04:08;;;;;;;15.65;1.70;;;;;;;11.07;100.00;99506.59;4784680;29;20496;-94
2024/03/18 13:06:53;;;;;;;12.07;1.40;;;;;;;11.02;100.00;99490.44;4847640;29;20073;-95
2024/03/18 13:16:55;;;;;;;19.20;1.85;;;;;;;11.12;100.00;99469.88;4873891;29;20036;-95
2024/03/18 13:19:33;;;;;;;18.55;1.67;;;;;;;11.17;100.00;99466.72;4857534;29;20037;-95
2024/03/18 13:23:18;;;;;;;12.38;1.90;;;;;;;11.23;100.00;99463.38;4848889;29;20452;-93
2024/03/18 13:29:48;;;;;;;13.82;2.33;;;;;;;11.22;100.00;99437.94;4889058;29;20049;-94
2024/03/18 13:32:23;;;;;;;8.95;1.92;;;;;;;11.32;100.00;99439.53;4870218;29;20104;-93
2024/03/18 13:48:17;;;;;;;16.27;2.50;;;;;;;11.39;100.00;99404.28;4798339;29;20115;-94
2024/03/18 13:52:04;;;;;;;;;;;;;;;;;;;;;
2024/03/18 13:54:43;;;;;;;19.25;2.55;;;;;;;11.37;100.00;99394.88;4857382;29;20033;-92
2024/03/18 13:58:16;;;;;;;15.00;2.40;;;;;;;11.36;100.00;99393.19;4847623;29;20041;-92
2024/03/18 14:01:29;;;;;;;13.57;2.03;;;;;;;11.32;100.00;99373.41;4784884;29;20949;-92